Time;durP1;ratioP1;P1;durP2;ratioP2;P2;SDS_P1;SDS_P2;PMS_P1;PMS_P2;Temp;Humidity;BMP_temperature;BMP_pressure;BME280_temperature;BME280_humidity;BME280_pressure;Samples;Min_cycle;Max_cycle;Signal;HPM_P1;HPM_P2
2021/08/20 00:01:12;;;;;;;1.98;1.35;;;16.20;83.70;;;;;;4778360;29;20540;-77
2021/08/20 00:03:41;;;;;;;1.67;1.23;;;16.20;83.70;;;;;;4796368;29;20051;-77
2021/08/20 00:06:09;;;;;;;2.53;1.20;;;16.10;83.80;;;;;;4798802;29;20055;-77
2021/08/20 00:08:37;;;;;;;1.55;1.40;;;16.10;83.90;;;;;;4799537;29;20070;-77
2021/08/20 00:11:07;;;;;;;1.48;1.25;;;16.10;84.00;;;;;;4794857;29;20059;-77
2021/08/20 00:13:35;;;;;;;2.83;1.35;;;16.10;84.10;;;;;;4799842;29;20055;-77
2021/08/20 00:16:02;;;;;;;1.98;1.48;;;16.00;84.20;;;;;;4795432;29;20058;-77
2021/08/20 00:18:30;;;;;;;3.97;1.50;;;16.00;84.30;;;;;;4793988;29;20055;-77
2021/08/20 00:20:58;;;;;;;2.55;1.40;;;16.00;84.40;;;;;;4797356;29;20062;-77
2021/08/20 00:23:25;;;;;;;3.85;1.73;;;16.00;84.50;;;;;;4799133;29;20047;-77
2021/08/20 00:25:53;;;;;;;6.65;2.22;;;16.00;84.50;;;;;;4794765;29;20153;-77
2021/08/20 00:28:21;;;;;;;3.63;1.73;;;16.00;84.60;;;;;;4795212;29;20517;-77
2021/08/20 00:30:49;;;;;;;4.18;1.90;;;16.00;84.70;;;;;;4795466;29;20059;-77
2021/08/20 00:33:17;;;;;;;5.85;2.15;;;15.90;84.80;;;;;;4795089;29;20066;-77
2021/08/20 00:35:44;;;;;;;2.85;1.90;;;15.90;84.90;;;;;;4791863;29;20047;-77
2021/08/20 00:38:14;;;;;;;5.13;1.83;;;15.80;85.00;;;;;;4793624;29;20043;-77
2021/08/20 00:40:42;;;;;;;3.83;2.03;;;15.80;85.10;;;;;;4795549;29;20066;-77
2021/08/20 00:43:10;;;;;;;3.95;1.95;;;15.80;85.30;;;;;;4792722;29;20054;-77
2021/08/20 00:45:38;;;;;;;3.47;2.13;;;15.80;85.40;;;;;;4787120;29;20062;-77
2021/08/20 00:48:07;;;;;;;8.93;2.60;;;15.70;85.50;;;;;;4790236;29;20052;-77
2021/08/20 00:50:35;;;;;;;2.85;2.10;;;15.70;85.50;;;;;;4804263;29;20540;-77
2021/08/20 00:53:03;;;;;;;4.20;2.08;;;15.70;85.60;;;;;;4801438;29;20434;-77
2021/08/20 00:55:31;;;;;;;2.88;2.00;;;15.70;85.60;;;;;;4793461;29;20092;-77
2021/08/20 00:58:00;;;;;;;2.45;2.20;;;15.70;85.60;;;;;;4793809;29;20059;-77
2021/08/20 01:00:27;;;;;;;3.72;2.60;;;15.60;85.60;;;;;;4793350;29;20054;-77
2021/08/20 01:02:56;;;;;;;5.65;2.50;;;15.60;85.70;;;;;;4788107;29;20058;-77
2021/08/20 01:05:25;;;;;;;2.38;2.10;;;15.60;85.90;;;;;;4791847;29;20403;-77
2021/08/20 01:07:53;;;;;;;3.45;2.20;;;15.50;85.90;;;;;;4794116;29;20051;-77
2021/08/20 01:10:20;;;;;;;2.33;2.03;;;15.40;86.10;;;;;;4793527;29;20048;-77
2021/08/20 01:12:48;;;;;;;4.35;2.20;;;15.40;86.10;;;;;;4792540;29;20488;-77
2021/08/20 01:15:16;;;;;;;2.83;2.08;;;15.40;86.20;;;;;;4823128;29;20054;-77
2021/08/20 01:17:50;;;;;;;3.83;2.03;;;15.40;86.20;;;;;;4793205;29;20059;-76
2021/08/20 01:20:19;;;;;;;2.60;1.73;;;15.30;86.40;;;;;;4793066;29;20051;-76
2021/08/20 01:22:47;;;;;;;2.20;2.00;;;15.30;86.40;;;;;;4807158;29;20390;-76
2021/08/20 01:25:16;;;;;;;4.38;2.13;;;15.30;86.50;;;;;;4794145;29;20059;-76
2021/08/20 01:27:44;;;;;;;2.63;2.25;;;15.30;86.50;;;;;;4792954;29;20059;-76
2021/08/20 01:30:13;;;;;;;2.95;2.28;;;15.30;86.60;;;;;;4793859;29;20058;-76
2021/08/20 01:32:41;;;;;;;4.20;2.08;;;15.30;86.70;;;;;;4780793;29;20054;-76
2021/08/20 01:35:09;;;;;;;4.15;2.40;;;15.30;86.60;;;;;;4802374;29;20055;-77
2021/08/20 01:37:37;;;;;;;3.67;2.15;;;15.30;86.60;;;;;;4803644;29;20059;-78
2021/08/20 01:40:07;;;;;;;2.58;2.15;;;15.30;86.70;;;;;;4818292;29;20062;-77
2021/08/20 01:42:34;;;;;;;2.38;1.90;;;15.30;86.70;;;;;;4803521;29;20534;-77
2021/08/20 01:45:02;;;;;;;4.75;2.20;;;15.30;86.70;;;;;;4805174;29;20047;-77
2021/08/20 01:47:31;;;;;;;5.93;2.33;;;15.30;86.70;;;;;;4805830;29;20050;-77
2021/08/20 01:49:59;;;;;;;3.38;2.45;;;15.20;86.80;;;;;;4807792;29;20054;-77
2021/08/20 01:52:29;;;;;;;2.55;2.15;;;15.20;86.90;;;;;;4806546;29;20059;-77
2021/08/20 01:54:57;;;;;;;2.60;2.10;;;15.10;87.00;;;;;;4806516;29;20054;-77
2021/08/20 01:57:25;;;;;;;4.97;2.63;;;15.10;87.10;;;;;;4814405;29;20043;-77
2021/08/20 01:59:53;;;;;;;5.45;2.60;;;15.00;87.20;;;;;;4781239;29;20051;-77
2021/08/20 02:02:21;;;;;;;3.28;2.50;;;14.90;87.40;;;;;;4810097;29;20055;-77
2021/08/20 02:04:49;;;;;;;4.97;2.30;;;14.90;87.60;;;;;;4794343;29;20047;-77
2021/08/20 02:07:18;;;;;;;4.25;2.33;;;14.80;87.70;;;;;;4805319;29;20047;-77
2021/08/20 02:09:47;;;;;;;3.75;2.80;;;14.80;87.80;;;;;;4806442;29;20057;-77
2021/08/20 02:12:15;;;;;;;4.68;2.63;;;14.80;88.00;;;;;;4805505;29;20047;-77
2021/08/20 02:14:55;;;;;;;3.50;2.33;;;14.70;88.10;;;;;;4806595;29;20497;-77
2021/08/20 02:17:25;;;;;;;3.60;2.42;;;14.70;88.10;;;;;;4806262;29;20050;-77
2021/08/20 02:19:54;;;;;;;6.60;2.40;;;14.60;88.20;;;;;;4791135;29;20051;-77
2021/08/20 02:22:25;;;;;;;3.28;2.40;;;14.60;88.30;;;;;;4787572;29;20070;-77
2021/08/20 02:24:54;;;;;;;2.83;2.30;;;14.60;88.40;;;;;;4787960;30;20051;-77
2021/08/20 02:27:22;;;;;;;3.03;2.20;;;14.60;88.40;;;;;;4800376;29;20062;-77
2021/08/20 02:29:56;;;;;;;3.20;2.70;;;14.50;88.50;;;;;;4790578;29;20062;-77
2021/08/20 02:32:24;;;;;;;3.58;2.22;;;14.50;88.60;;;;;;4836359;29;20038;-77
2021/08/20 02:34:51;;;;;;;4.97;2.58;;;14.40;88.70;;;;;;4807533;29;20054;-77
2021/08/20 02:37:19;;;;;;;3.55;2.42;;;14.30;88.80;;;;;;4806108;29;20073;-76
2021/08/20 02:39:47;;;;;;;5.32;2.50;;;14.30;88.90;;;;;;4795117;29;20062;-77
2021/08/20 02:42:15;;;;;;;4.25;2.70;;;14.30;89.00;;;;;;4788571;29;20417;-77
2021/08/20 02:44:42;;;;;;;5.15;2.88;;;14.20;89.10;;;;;;4789029;30;20051;-77
2021/08/20 02:47:10;;;;;;;3.47;2.58;;;14.10;89.30;;;;;;4787812;30;20071;-76
2021/08/20 02:49:38;;;;;;;6.82;4.20;;;14.00;89.50;;;;;;4788904;29;20055;-77
2021/08/20 02:52:10;;;;;;;4.65;3.00;;;14.00;89.60;;;;;;4787905;29;20055;-77
2021/08/20 02:54:38;;;;;;;4.45;2.67;;;13.90;89.70;;;;;;4793188;29;20049;-77
2021/08/20 02:57:06;;;;;;;5.53;3.42;;;13.80;89.80;;;;;;4805886;29;20053;-77
2021/08/20 02:59:41;;;;;;;4.18;3.53;;;13.80;89.90;;;;;;4805642;29;20051;-77
2021/08/20 03:02:13;;;;;;;5.78;3.28;;;13.80;90.00;;;;;;4782918;29;20051;-77
2021/08/20 03:04:42;;;;;;;3.85;3.40;;;13.80;90.10;;;;;;4787578;30;20072;-77
2021/08/20 03:07:29;;;;;;;4.57;3.63;;;13.80;90.30;;;;;;4774888;30;20055;-77
2021/08/20 03:09:57;;;;;;;6.07;3.60;;;13.70;90.40;;;;;;4787518;29;20502;-77
2021/08/20 03:12:27;;;;;;;5.03;3.83;;;13.60;90.50;;;;;;4787198;29;20043;-78
2021/08/20 03:14:56;;;;;;;7.00;3.90;;;13.60;90.70;;;;;;4787270;30;20399;-77
2021/08/20 03:17:30;;;;;;;5.30;3.55;;;13.60;90.70;;;;;;4787214;30;20058;-77
2021/08/20 03:20:05;;;;;;;3.40;3.10;;;13.60;90.70;;;;;;4788418;30;20505;-77
2021/08/20 03:22:39;;;;;;;8.10;3.50;;;13.60;90.80;;;;;;4786706;30;20498;-77
2021/08/20 03:25:27;;;;;;;6.10;3.38;;;13.60;90.90;;;;;;5109961;27;20377;-77
2021/08/20 03:28:09;;;;;;;4.00;3.47;;;13.50;90.90;;;;;;5089547;27;20383;-78
2021/08/20 03:30:55;;;;;;;10.18;3.70;;;13.60;91.00;;;;;;5069584;28;20441;-78
2021/08/20 03:33:37;;;;;;;4.20;2.95;;;13.60;91.10;;;;;;5069455;28;20453;-78
2021/08/20 03:36:26;;;;;;;4.80;3.13;;;13.50;91.10;;;;;;5069620;28;20915;-77
2021/08/20 03:39:11;;;;;;;4.07;3.28;;;13.50;91.10;;;;;;5046074;27;20449;-77
2021/08/20 03:41:54;;;;;;;3.88;3.38;;;13.40;91.10;;;;;;5069562;28;20383;-78
2021/08/20 03:44:37;;;;;;;9.25;3.40;;;13.30;91.20;;;;;;5151499;27;20383;-77
2021/08/20 03:47:20;;;;;;;5.00;3.58;;;13.30;91.30;;;;;;5089585;28;20504;-77
2021/08/20 03:50:02;;;;;;;6.85;3.42;;;13.30;91.60;;;;;;5069347;28;20799;-77
2021/08/20 03:52:48;;;;;;;4.85;3.40;;;13.30;91.80;;;;;;5068742;28;20742;-78
2021/08/20 03:55:29;;;;;;;6.20;3.17;;;13.30;91.80;;;;;;5069526;28;20884;-76
2021/08/20 03:58:31;;;;;;;4.35;3.20;;;13.30;91.80;;;;;;5069461;28;20437;-78
2021/08/20 04:01:15;;;;;;;4.72;3.17;;;13.30;91.80;;;;;;5110017;27;20389;-77
2021/08/20 04:03:58;;;;;;;5.72;3.50;;;13.20;91.90;;;;;;5110126;27;20893;-78
2021/08/20 04:06:46;;;;;;;6.80;3.92;;;13.20;92.00;;;;;;5110177;27;20595;-78
2021/08/20 04:09:40;;;;;;;9.05;3.80;;;13.10;92.00;;;;;;5069300;28;20892;-78
2021/08/20 04:12:48;;;;;;;5.45;3.90;;;13.00;92.20;;;;;;5110192;27;20457;-77
2021/08/20 04:15:47;;;;;;;6.78;4.20;;;12.90;92.30;;;;;;5069642;28;20433;-77
2021/08/20 04:18:30;;;;;;;10.32;4.57;;;12.80;92.40;;;;;;5109960;27;20397;-77
2021/08/20 04:21:10;;;;;;;6.47;4.68;;;12.80;92.60;;;;;;5110040;27;20381;-76
2021/08/20 04:23:54;;;;;;;12.77;5.10;;;12.80;92.60;;;;;;5069745;28;20884;-77
2021/08/20 04:26:34;;;;;;;6.13;4.63;;;12.70;92.70;;;;;;5172081;27;20110;-78
2021/08/20 04:29:24;;;;;;;7.35;5.03;;;12.70;92.90;;;;;;5089830;27;20436;-78
2021/08/20 04:32:18;;;;;;;6.68;4.70;;;12.70;93.00;;;;;;5110576;27;20901;-77
2021/08/20 04:35:18;;;;;;;9.38;5.32;;;12.60;93.00;;;;;;5111624;27;20442;-77
2021/08/20 04:38:22;;;;;;;7.97;5.35;;;12.60;93.10;;;;;;5070186;28;20387;-78
2021/08/20 04:41:11;;;;;;;7.57;5.35;;;12.60;93.00;;;;;;5069902;28;20884;-77
2021/08/20 04:44:12;;;;;;;7.93;5.07;;;12.60;92.90;;;;;;5069524;28;20969;-77
2021/08/20 04:47:02;;;;;;;11.30;5.30;;;12.50;93.00;;;;;;5089936;27;20382;-77
2021/08/20 04:50:15;;;;;;;11.90;5.65;;;12.40;93.10;;;;;;5069521;28;20395;-76
2021/08/20 04:53:08;;;;;;;12.85;6.30;;;12.40;93.40;;;;;;5069579;28;20383;-77
2021/08/20 04:56:17;;;;;;;7.88;5.40;;;12.40;93.60;;;;;;5089871;27;20378;-77
2021/08/20 04:58:58;;;;;;;6.57;4.60;;;12.40;93.90;;;;;;5110089;27;20374;-77
2021/08/20 05:01:55;;;;;;;8.50;5.10;;;12.50;93.90;;;;;;5187206;27;20379;-77
2021/08/20 05:05:05;;;;;;;9.57;4.72;;;12.60;93.80;;;;;;5111496;27;20407;-77
2021/08/20 05:07:59;;;;;;;5.38;4.15;;;12.70;93.70;;;;;;5121285;27;20902;-77
2021/08/20 05:10:57;;;;;;;7.78;4.72;;;12.80;93.60;;;;;;5192986;27;20377;-76
2021/08/20 05:14:20;;;;;;;7.05;4.70;;;12.80;93.60;;;;;;5090894;27;20499;-77
2021/08/20 05:17:17;;;;;;;9.07;4.28;;;12.90;93.60;;;;;;5098356;27;20402;-77
2021/08/20 05:20:12;;;;;;;7.43;4.10;;;13.00;93.60;;;;;;5090242;27;20401;-77
2021/08/20 05:23:09;;;;;;;5.65;3.95;;;13.20;93.70;;;;;;5193151;27;20377;-77
2021/08/20 05:26:03;;;;;;;5.45;4.43;;;13.30;93.70;;;;;;5090171;27;20878;-78
2021/08/20 05:28:58;;;;;;;3.72;3.28;;;13.50;93.60;;;;;;5090543;27;21074;-77
2021/08/20 05:31:38;;;;;;;3.58;3.10;;;13.60;93.50;;;;;;5069395;28;20938;-77
2021/08/20 05:34:20;;;;;;;5.57;3.35;;;13.70;93.40;;;;;;5193132;27;20128;-77
2021/08/20 05:37:01;;;;;;;6.32;3.33;;;13.80;93.20;;;;;;5172103;27;20125;-77
2021/08/20 05:39:43;;;;;;;7.68;3.50;;;13.80;93.10;;;;;;5110455;27;20450;-77
2021/08/20 05:42:24;;;;;;;5.68;3.20;;;13.90;92.90;;;;;;5069052;28;20807;-76
2021/08/20 05:45:05;;;;;;;4.22;3.60;;;13.90;92.80;;;;;;5089680;27;20382;-78
2021/08/20 05:47:58;;;;;;;7.43;3.03;;;14.00;92.70;;;;;;5069489;28;20384;-77
2021/08/20 05:50:38;;;;;;;5.22;3.13;;;14.00;92.60;;;;;;5069242;28;20441;-76
2021/08/20 05:53:19;;;;;;;3.92;3.03;;;14.10;92.60;;;;;;5130628;27;20133;-77
2021/08/20 05:56:00;;;;;;;7.32;3.10;;;14.00;92.50;;;;;;5069621;28;20471;-77
2021/08/20 05:58:41;;;;;;;7.20;3.25;;;14.10;92.40;;;;;;5110182;27;20389;-78
2021/08/20 06:01:21;;;;;;;5.45;3.47;;;14.10;92.30;;;;;;5109917;27;20381;-77
2021/08/20 06:04:01;;;;;;;9.15;3.83;;;14.10;92.20;;;;;;5069444;28;20433;-78
2021/08/20 06:06:48;;;;;;;9.93;3.80;;;14.10;92.10;;;;;;5069605;28;20384;-77
2021/08/20 06:09:30;;;;;;;7.03;4.15;;;14.00;92.10;;;;;;5069385;28;20383;-76
2021/08/20 06:12:10;;;;;;;4.82;3.80;;;14.00;92.10;;;;;;5130647;27;20130;-77
2021/08/20 06:14:51;;;;;;;7.50;3.72;;;14.00;92.20;;;;;;5110140;27;20385;-77
2021/08/20 06:17:32;;;;;;;7.38;4.32;;;13.90;92.20;;;;;;5069442;28;21115;-77
2021/08/20 06:20:13;;;;;;;8.75;4.35;;;14.00;92.10;;;;;;5089451;27;20386;-78
2021/08/20 06:22:54;;;;;;;8.32;3.97;;;14.00;92.10;;;;;;5049428;28;20115;-77
2021/08/20 06:25:35;;;;;;;7.18;4.63;;;14.10;92.00;;;;;;5110031;27;20426;-77
2021/08/20 06:28:15;;;;;;;7.88;4.43;;;14.20;91.90;;;;;;5109918;27;20435;-77
2021/08/20 06:30:55;;;;;;;6.95;4.20;;;14.30;91.70;;;;;;5069687;28;20948;-77
2021/08/20 06:33:37;;;;;;;6.07;4.00;;;14.30;91.60;;;;;;5110270;27;20442;-77
2021/08/20 06:36:17;;;;;;;5.13;3.90;;;14.40;91.50;;;;;;5070714;28;20388;-77
2021/08/20 06:38:57;;;;;;;5.15;3.90;;;14.60;91.40;;;;;;5131194;27;20376;-77
2021/08/20 06:41:36;;;;;;;4.90;3.70;;;14.60;91.20;;;;;;5110156;27;1259449;-77
2021/08/20 06:44:17;;;;;;;6.68;3.67;;;14.70;91.00;;;;;;5069328;28;20437;-77
2021/08/20 06:46:56;;;;;;;5.15;3.75;;;14.80;90.80;;;;;;5130552;27;20437;-77
2021/08/20 06:49:51;;;;;;;5.00;3.25;;;14.90;90.70;;;;;;5069290;28;20441;-77
2021/08/20 06:52:31;;;;;;;4.15;3.63;;;15.10;90.60;;;;;;5069453;28;20379;-77
2021/08/20 06:55:11;;;;;;;7.85;3.00;;;15.30;90.30;;;;;;5172190;27;19915;-76
2021/08/20 06:57:52;;;;;;;4.40;3.10;;;15.30;90.10;;;;;;5110084;27;20388;-77
2021/08/20 07:00:32;;;;;;;3.65;2.90;;;15.40;89.80;;;;;;5151191;27;20371;-77
2021/08/20 07:03:11;;;;;;;3.95;3.28;;;15.40;89.70;;;;;;5069044;28;20379;-77
2021/08/20 07:05:52;;;;;;;3.40;2.60;;;15.50;89.60;;;;;;5109886;27;20450;-76
2021/08/20 07:08:35;;;;;;;6.25;3.08;;;15.40;89.50;;;;;;5069410;28;20807;-75
2021/08/20 07:11:16;;;;;;;5.35;2.90;;;15.40;89.40;;;;;;5110001;27;20885;-78
2021/08/20 07:14:00;;;;;;;3.80;2.60;;;15.40;89.40;;;;;;5150960;27;20451;-77
2021/08/20 07:16:45;;;;;;;2.70;2.50;;;15.50;89.50;;;;;;5069487;28;20701;-76
2021/08/20 07:19:13;;;;;;;5.22;2.50;;;15.50;89.50;;;;;;5069499;28;20040;-77
2021/08/20 07:21:53;;;;;;;3.65;2.45;;;15.50;89.30;;;;;;5069447;28;20379;-76
2021/08/20 07:24:34;;;;;;;5.03;2.80;;;15.50;89.30;;;;;;5069269;28;20449;-78
2021/08/20 07:27:14;;;;;;;2.67;2.40;;;15.60;89.30;;;;;;5069982;27;20896;-77
2021/08/20 07:29:54;;;;;;;3.72;3.25;;;15.60;89.30;;;;;;5110324;27;20450;-77
2021/08/20 07:32:38;;;;;;;3.28;2.53;;;15.60;89.30;;;;;;5109847;27;20169;-77
2021/08/20 07:35:21;;;;;;;2.60;2.40;;;15.70;89.20;;;;;;5130389;27;19916;-77
2021/08/20 07:38:01;;;;;;;5.15;2.53;;;15.70;89.10;;;;;;5110105;27;20381;-76
2021/08/20 07:40:45;;;;;;;2.78;2.40;;;15.80;89.10;;;;;;5069520;28;20722;-77
2021/08/20 07:43:25;;;;;;;2.90;2.40;;;15.80;88.90;;;;;;5069466;28;20387;-76
2021/08/20 07:46:04;;;;;;;2.50;2.30;;;15.90;88.80;;;;;;5068007;28;20803;-76
2021/08/20 07:48:45;;;;;;;4.40;2.38;;;16.00;88.80;;;;;;5069208;28;20391;-77
2021/08/20 07:51:26;;;;;;;2.72;2.17;;;16.10;88.60;;;;;;5069399;28;20388;-77
2021/08/20 07:54:06;;;;;;;4.20;2.10;;;16.20;88.50;;;;;;5069571;28;20396;-77
2021/08/20 07:56:46;;;;;;;2.58;2.15;;;16.30;88.30;;;;;;5069100;28;20776;-76
2021/08/20 07:59:28;;;;;;;3.47;2.10;;;16.30;88.10;;;;;;5081374;28;20398;-76
2021/08/20 08:02:09;;;;;;;2.50;2.30;;;16.40;88.00;;;;;;5109829;27;20442;-76
2021/08/20 08:05:04;;;;;;;2.88;2.30;;;16.50;87.90;;;;;;5089945;27;20409;-75
2021/08/20 08:08:07;;;;;;;2.08;1.90;;;16.70;87.70;;;;;;5119244;27;20967;-75
2021/08/20 08:11:04;;;;;;;2.30;2.10;;;16.80;87.40;;;;;;5193581;27;20384;-76
2021/08/20 08:14:05;;;;;;;2.88;1.73;;;16.80;87.10;;;;;;5090126;27;20405;-76
2021/08/20 08:17:03;;;;;;;1.88;1.70;;;16.90;86.90;;;;;;5151285;27;20533;-76
2021/08/20 08:20:01;;;;;;;2.13;1.90;;;17.10;86.70;;;;;;5089459;27;20401;-76
2021/08/20 08:23:03;;;;;;;2.22;2.03;;;17.30;86.40;;;;;;5113840;27;20413;-76
2021/08/20 08:25:56;;;;;;;3.03;2.03;;;17.30;86.00;;;;;;5090020;27;20397;-76
2021/08/20 08:28:55;;;;;;;2.17;1.77;;;17.50;85.60;;;;;;5089184;28;20397;-77
2021/08/20 08:31:49;;;;;;;2.08;1.48;;;17.70;85.10;;;;;;5090223;27;20423;-77
2021/08/20 08:34:46;;;;;;;4.38;1.70;;;17.80;84.70;;;;;;5193293;27;20710;-76
2021/08/20 08:37:44;;;;;;;1.42;1.33;;;18.00;83.80;;;;;;5089288;28;20810;-76
2021/08/20 08:40:45;;;;;;;4.35;1.25;;;18.10;83.20;;;;;;5149979;27;19918;-76
2021/08/20 08:43:41;;;;;;;1.77;1.40;;;18.30;82.90;;;;;;5088553;27;20902;-77
2021/08/20 08:46:39;;;;;;;3.35;1.40;;;18.40;82.10;;;;;;5090134;27;20405;-76
2021/08/20 08:49:22;;;;;;;2.00;1.58;;;18.50;81.60;;;;;;5089875;27;20375;-74
2021/08/20 08:52:03;;;;;;;2.60;1.30;;;18.60;81.50;;;;;;5110281;27;20430;-76
2021/08/20 08:54:44;;;;;;;1.95;1.20;;;18.60;81.20;;;;;;5109984;27;20772;-77
2021/08/20 08:57:24;;;;;;;1.45;1.17;;;18.60;80.80;;;;;;5069222;28;20434;-76
2021/08/20 09:00:06;;;;;;;3.25;1.23;;;18.50;80.10;;;;;;5069160;28;20388;-76
2021/08/20 09:02:48;;;;;;;2.97;1.40;;;18.40;80.10;;;;;;5068091;28;20124;-74
2021/08/20 09:05:43;;;;;;;2.70;1.13;;;18.40;80.20;;;;;;5069359;28;20780;-76
2021/08/20 09:08:26;;;;;;;1.20;1.10;;;18.40;80.10;;;;;;5069532;28;20814;-74
2021/08/20 09:11:13;;;;;;;1.85;1.08;;;18.60;80.00;;;;;;5069466;28;20951;-75
2021/08/20 09:13:53;;;;;;;6.35;1.00;;;18.80;79.20;;;;;;5069223;28;20379;-74
2021/08/20 09:16:47;;;;;;;1.60;1.20;;;19.00;78.40;;;;;;5069614;28;20437;-75
2021/08/20 09:19:29;;;;;;;2.20;1.05;;;19.10;77.30;;;;;;5069723;28;20375;-76
2021/08/20 09:22:11;;;;;;;2.17;1.13;;;19.20;77.40;;;;;;5069193;28;20445;-75
2021/08/20 09:24:51;;;;;;;1.27;0.88;;;19.50;76.20;;;;;;5068888;28;20742;-75
2021/08/20 09:27:30;;;;;;;1.65;1.00;;;19.50;75.80;;;;;;5069119;28;20388;-75
2021/08/20 09:30:11;;;;;;;1.80;0.98;;;19.60;75.60;;;;;;5061109;28;20549;-75
2021/08/20 09:32:54;;;;;;;1.42;1.00;;;19.60;75.50;;;;;;5109502;27;20792;-74
2021/08/20 09:35:36;;;;;;;1.48;1.00;;;19.80;74.90;;;;;;5109999;27;20431;-76
2021/08/20 09:38:18;;;;;;;1.92;0.70;;;19.90;74.00;;;;;;5109580;27;20714;-77
2021/08/20 09:41:19;;;;;;;1.50;0.90;;;20.10;73.80;;;;;;5069211;28;20387;-75
2021/08/20 09:44:03;;;;;;;2.20;0.82;;;20.20;73.20;;;;;;5069352;28;20718;-76
2021/08/20 09:46:46;;;;;;;2.85;0.90;;;20.40;72.40;;;;;;5089421;27;20378;-75
2021/08/20 09:49:27;;;;;;;1.23;0.75;;;20.60;71.20;;;;;;5069129;28;20448;-75
2021/08/20 09:52:28;;;;;;;2.25;0.45;;;20.70;70.80;;;;;;5069155;28;20380;-74
2021/08/20 09:55:09;;;;;;;1.60;0.60;;;20.70;69.90;;;;;;5069677;28;20383;-77
2021/08/20 09:57:50;;;;;;;1.85;0.60;;;20.60;70.10;;;;;;5069143;28;20800;-75
2021/08/20 10:00:33;;;;;;;1.70;0.80;;;20.60;70.20;;;;;;5109959;27;20385;-75
2021/08/20 10:03:16;;;;;;;3.47;1.00;;;20.60;70.60;;;;;;5069236;28;20380;-75
2021/08/20 10:06:00;;;;;;;0.90;0.80;;;20.70;70.40;;;;;;5109977;27;20373;-77
2021/08/20 10:08:43;;;;;;;1.55;0.80;;;20.80;69.90;;;;;;5069342;28;20437;-75
2021/08/20 10:11:27;;;;;;;2.63;0.77;;;20.80;69.10;;;;;;5110753;27;20788;-77
2021/08/20 10:14:09;;;;;;;0.88;0.68;;;20.80;69.10;;;;;;5067847;28;20388;-75
2021/08/20 10:16:38;;;;;;;1.75;0.70;;;20.90;69.10;;;;;;5069302;28;20401;-76
2021/08/20 10:19:08;;;;;;;1.73;0.60;;;21.00;69.10;;;;;;5069194;28;20262;-75
2021/08/20 10:21:39;;;;;;;3.53;0.60;;;21.30;68.70;;;;;;5068485;28;20060;-76
2021/08/20 10:24:09;;;;;;;0.90;0.80;;;21.40;67.70;;;;;;5068884;28;20401;-76
2021/08/20 10:26:43;;;;;;;1.15;0.75;;;21.80;67.70;;;;;;5068742;28;20048;-75
2021/08/20 10:29:12;;;;;;;1.58;0.60;;;22.00;66.90;;;;;;5067171;28;20041;-76
2021/08/20 10:31:43;;;;;;;2.22;0.60;;;22.20;65.70;;;;;;5067157;28;20056;-76
2021/08/20 10:34:29;;;;;;;0.68;0.57;;;22.40;65.40;;;;;;5075150;28;20052;-76
2021/08/20 10:37:11;;;;;;;1.05;0.70;;;22.70;62.80;;;;;;5089204;28;20067;-76
2021/08/20 10:39:43;;;;;;;1.70;0.80;;;22.70;62.50;;;;;;5069667;28;20052;-76
2021/08/20 10:42:16;;;;;;;2.38;0.90;;;22.50;62.40;;;;;;5050584;28;20057;-76
2021/08/20 10:45:09;;;;;;;0.73;0.60;;;22.50;62.30;;;;;;5108977;27;20381;-75
2021/08/20 10:48:13;;;;;;;2.42;0.70;;;22.60;61.70;;;;;;5068203;28;20453;-77
2021/08/20 10:50:55;;;;;;;0.82;0.65;;;22.40;61.40;;;;;;5109097;27;20381;-77
2021/08/20 10:53:47;;;;;;;1.38;0.93;;;22.50;61.60;;;;;;5088488;27;20452;-75
2021/08/20 10:56:32;;;;;;;0.70;0.57;;;22.70;61.90;;;;;;5109234;27;20438;-75
2021/08/20 10:59:35;;;;;;;1.30;0.50;;;23.00;61.60;;;;;;5109012;27;20428;-75
2021/08/20 11:02:24;;;;;;;0.93;0.60;;;23.30;59.60;;;;;;5111991;27;20727;-76
2021/08/20 11:05:14;;;;;;;1.20;0.80;;;23.30;59.80;;;;;;5103803;27;20126;-75
2021/08/20 11:07:54;;;;;;;1.05;0.60;;;23.30;59.70;;;;;;5103387;27;20394;-75
2021/08/20 11:10:35;;;;;;;1.92;0.90;;;23.30;59.50;;;;;;5051355;28;20396;-76
2021/08/20 11:13:14;;;;;;;2.05;0.80;;;23.10;60.00;;;;;;5056587;28;20457;-76
2021/08/20 11:15:55;;;;;;;2.35;0.80;;;23.00;60.40;;;;;;5105779;27;20404;-76
2021/08/20 11:18:47;;;;;;;1.02;0.70;;;22.90;60.60;;;;;;5076027;28;20467;-75
2021/08/20 11:21:42;;;;;;;1.88;1.00;;;22.90;60.90;;;;;;5063284;28;20406;-78
2021/08/20 11:24:23;;;;;;;1.67;0.88;;;22.80;61.20;;;;;;5054547;28;20891;-75
2021/08/20 11:27:16;;;;;;;1.95;1.10;;;22.80;61.50;;;;;;5110506;27;20123;-76
2021/08/20 11:30:02;;;;;;;0.82;0.77;;;22.80;61.10;;;;;;5087626;27;20406;-76
2021/08/20 11:32:32;;;;;;;1.10;0.93;;;23.00;60.60;;;;;;5071568;28;20063;-76
2021/08/20 11:35:00;;;;;;;14.63;3.15;;;23.10;60.50;;;;;;5075047;28;20044;-76
2021/08/20 11:37:28;;;;;;;0.90;0.70;;;23.00;59.40;;;;;;5066968;28;20513;-77
2021/08/20 11:40:07;;;;;;;12.50;3.58;;;22.90;59.40;;;;;;5067811;28;20067;-76
2021/08/20 11:42:35;;;;;;;3.30;0.60;;;23.00;59.40;;;;;;5077410;28;20047;-77
2021/08/20 11:45:22;;;;;;;1.27;0.77;;;23.30;58.60;;;;;;5072991;28;20045;-77
2021/08/20 11:47:58;;;;;;;12.30;2.67;;;23.40;57.00;;;;;;5052062;28;20056;-76
2021/08/20 11:50:28;;;;;;;2.90;0.90;;;23.40;57.70;;;;;;5085588;28;20111;-76
2021/08/20 11:52:58;;;;;;;7.90;1.80;;;23.50;58.20;;;;;;5076239;28;20037;-77
2021/08/20 11:55:30;;;;;;;2.63;0.80;;;23.50;58.10;;;;;;5056031;28;20064;-76
2021/08/20 11:58:02;;;;;;;1.17;0.90;;;23.40;57.80;;;;;;5063870;28;20048;-77
2021/08/20 12:00:38;;;;;;;1.70;0.70;;;23.20;57.70;;;;;;5075200;28;20044;-77
2021/08/20 12:03:09;;;;;;;2.75;0.68;;;23.00;58.20;;;;;;5071538;28;20044;-78
2021/08/20 12:05:37;;;;;;;1.23;1.00;;;22.80;58.80;;;;;;5072712;28;20044;-77
2021/08/20 12:08:17;;;;;;;3.17;1.10;;;22.70;59.00;;;;;;5066218;28;20052;-78
2021/08/20 12:10:46;;;;;;;1.92;1.10;;;22.40;59.90;;;;;;5055792;28;20056;-78
2021/08/20 12:13:14;;;;;;;2.45;0.98;;;22.20;60.90;;;;;;5071704;28;20492;-77
2021/08/20 12:15:55;;;;;;;1.67;0.90;;;22.10;61.50;;;;;;5058539;28;20048;-78
2021/08/20 12:18:28;;;;;;;4.30;0.90;;;22.10;62.20;;;;;;5062457;28;20053;-78
2021/08/20 12:20:56;;;;;;;2.30;0.88;;;22.10;62.60;;;;;;5047385;28;20502;-78
2021/08/20 12:23:24;;;;;;;2.38;0.70;;;22.30;62.20;;;;;;5062047;28;20032;-77
2021/08/20 12:25:53;;;;;;;0.55;0.45;;;22.30;61.30;;;;;;5067156;28;20064;-75
2021/08/20 12:28:39;;;;;;;1.85;0.70;;;22.30;61.00;;;;;;5066048;28;20053;-77
2021/08/20 12:31:07;;;;;;;1.55;0.93;;;22.20;60.90;;;;;;5059498;28;20060;-77
2021/08/20 12:33:35;;;;;;;1.10;0.80;;;22.30;61.30;;;;;;5064468;28;20051;-77
2021/08/20 12:36:03;;;;;;;0.63;0.55;;;22.40;60.80;;;;;;5074635;28;20036;-77
2021/08/20 12:38:31;;;;;;;1.30;0.80;;;22.60;60.60;;;;;;5062210;28;20044;-75
2021/08/20 12:41:05;;;;;;;0.80;0.70;;;22.80;60.70;;;;;;5050278;28;20065;-75
2021/08/20 12:43:36;;;;;;;14.82;1.17;;;23.30;60.00;;;;;;5041747;28;20546;-76
2021/08/20 12:46:09;;;;;;;1.67;0.80;;;23.80;58.80;;;;;;5046410;28;20045;-76
2021/08/20 12:48:58;;;;;;;1.38;0.90;;;24.00;57.80;;;;;;5041763;28;20048;-76
2021/08/20 12:51:26;;;;;;;1.00;0.80;;;24.10;56.80;;;;;;5036648;28;20053;-76
2021/08/20 12:54:03;;;;;;;1.80;0.95;;;24.20;57.30;;;;;;5036376;28;20059;-76
2021/08/20 12:56:31;;;;;;;1.02;0.70;;;24.30;56.50;;;;;;5052453;28;20045;-76
2021/08/20 12:59:04;;;;;;;2.00;0.88;;;24.20;56.20;;;;;;5072918;28;20052;-77
2021/08/20 13:01:38;;;;;;;0.95;0.60;;;24.20;55.90;;;;;;5065515;28;20060;-75
2021/08/20 13:04:07;;;;;;;8.85;1.20;;;24.20;55.90;;;;;;5052483;28;20033;-76
2021/08/20 13:06:38;;;;;;;4.47;1.02;;;24.30;56.80;;;;;;5036731;28;20049;-78
2021/08/20 13:09:05;;;;;;;1.48;0.80;;;24.70;56.40;;;;;;5043267;28;20402;-77
2021/08/20 13:11:49;;;;;;;3.90;0.85;;;24.80;55.10;;;;;;5044026;28;20054;-76
2021/08/20 13:14:17;;;;;;;2.80;1.10;;;24.70;54.20;;;;;;5033930;28;20072;-76
2021/08/20 13:16:44;;;;;;;1.15;0.70;;;24.50;54.50;;;;;;5037203;28;20052;-76
2021/08/20 13:19:13;;;;;;;1.58;0.55;;;24.10;54.80;;;;;;5032783;28;20065;-76
2021/08/20 13:21:41;;;;;;;3.60;0.70;;;23.70;55.70;;;;;;5033167;28;20053;-76
2021/08/20 13:24:09;;;;;;;0.85;0.60;;;23.40;56.70;;;;;;5041922;28;20079;-75
2021/08/20 13:26:37;;;;;;;2.38;0.60;;;23.20;57.70;;;;;;5035623;28;20038;-76
2021/08/20 13:29:06;;;;;;;2.53;0.75;;;23.10;57.40;;;;;;5050924;28;20052;-76
2021/08/20 13:31:34;;;;;;;1.00;0.65;;;23.00;57.80;;;;;;5052653;28;20041;-76
2021/08/20 13:34:01;;;;;;;0.70;0.60;;;22.90;58.70;;;;;;5043601;28;20041;-78
2021/08/20 13:36:29;;;;;;;0.98;0.60;;;22.90;59.10;;;;;;5054868;28;20037;-77
2021/08/20 13:38:57;;;;;;;1.15;0.60;;;23.00;59.10;;;;;;5045039;28;20056;-77
2021/08/20 13:41:28;;;;;;;2.80;0.90;;;23.10;59.30;;;;;;5050651;28;20056;-76
2021/08/20 13:43:56;;;;;;;1.60;1.05;;;23.20;59.00;;;;;;5040211;28;20046;-77
2021/08/20 13:46:24;;;;;;;6.45;0.70;;;23.20;58.90;;;;;;5048639;28;20041;-77